Details From KBDL - Bradley Intl
To KBID - Block Island State
Flight Number -
Tags generated
Created
Modified
Stats Distance 68 nm / 126 km
Max Altitude 3,400 ft / 1,036 m
Waypoints 3
Social Downloads 0
Likes 0
Share VATSIM

Download

Looking for another format? Having issues loading an existing format? Contact us
Advertisement - Login to hide

Notes

Basic altitude profile: - Ascent Rate: 2500ft/min - Ascent Speed: 250kts - Cruise Altitude: 35000ft - Cruise Speed: 420kts - Descent Rate: 1500ft/min - Descent Speed: 250kts

Route

KBDL WACKY KBID

ID Type Via Altitude Latitude Longitude Leg Dist Tot Dist Heading (true) Name
O KBDL APT - 0 ft / 0 m 41.93892˚ -72.68279˚ - 0 nm - Bradley Intl
WACKY FIX - 3,400 ft / 1,036 m 41.34042˚ -71.85619˚ 51 nm 51 nm 134° / 134° -
O KBID APT - 0 ft / 0 m 41.16814˚ -71.57761˚ 16 nm 67 nm 129° / 130° Block Island State

Altitude Profile

Advertisement - Login to hide

KBDL

Details ICAO KBDL (BDL)
Name Bradley Intl
Region United States
Timezone America/New_York (UTC-5.0)
Stats Elevation 172 ft / 52 m (AMSL)
Location 41.938916° -72.682790°
Runways 3
Magnetic Variation 13.837° W

METAR

KBDL 140251Z 28007KT 10SM FEW040 FEW200 BKN230 M07/M14 A2960 RMK AO2 SLP025 T10721139 50005

Decode

TAF

TAF KBDL 132338Z 1400/1506 27010G23KT P6SM FEW250 FM140400 26007KT P6SM OVC100 FM140600 25005KT P6SM VCSH OVC040 FM140900 VRB03KT 2SM -SN OVC035 FM141200 VRB03KT P6SM VCSH OVC040 FM141500 32010KT P6SM BKN070 FM150400 29006KT P6SM SKC

Decode

Departure Runways

ID Width Length Bearing (true) Bearing (mag) Surface Threshold Offset Overrun Length
01 100 ft / 30 m 4,273 ft / 1,302 m 359.04° 12.88° Asphalt 479 ft / 146 m 0 ft / 0 m
06 200 ft / 61 m 9,505 ft / 2,897 m 44.27° 58.11° Asphalt 0 ft / 0 m 243 ft / 74 m
15 150 ft / 46 m 6,843 ft / 2,086 m 134.48° 148.32° Asphalt 0 ft / 0 m 997 ft / 304 m
19 100 ft / 30 m 4,273 ft / 1,302 m 179.04° 192.88° Asphalt 0 ft / 0 m 0 ft / 0 m
24 200 ft / 61 m 9,505 ft / 2,897 m 224.29° 238.13° Asphalt 0 ft / 0 m 988 ft / 301 m
33 150 ft / 46 m 6,843 ft / 2,086 m 314.49° 328.33° Asphalt 0 ft / 0 m 95 ft / 29 m

KBID

Details ICAO KBID (BID)
Name Block Island State
Region United States
Timezone America/New_York (UTC-5.0)
Stats Elevation 108 ft / 33 m (AMSL)
Location 41.168139° -71.577612°
Runways 1
Magnetic Variation 14.135° W

METAR

KBID 140256Z AUTO 27018G26KT 10SM CLR M02/M10 A2960 RMK AO2 PK WND 26031/0208 SLP027 T10171100 51007 FZRANO

Decode

TAF

Not found

Destination Runways

ID Width Length Bearing (true) Bearing (mag) Surface Threshold Offset Overrun Length
10 98 ft / 30 m 2,504 ft / 763 m 83.74° 97.88° Asphalt 0 ft / 0 m 0 ft / 0 m
28 98 ft / 30 m 2,504 ft / 763 m 263.75° 277.89° Asphalt 0 ft / 0 m 0 ft / 0 m